PRIVATE WETTERSTATION BILLIGHEIM-ALLFELD                       ZURCK
Wetterdaten: Donnerstag, 25.02.2016
Datum Zeit Temp. A. Temp. A. min Temp. A. max Feuchte A. Luftdruck Regen Wind Richtung Richtung Sonnenschein ET Solar Taupunkt Windchill Windben Empfang
25.02.2016 00:00 -0,3 C -0,3 C -0,2 C 91 % 1012,1 hPa 0,0 l/m 0,0 km/h (0 Bft) N 0 0 min 0,000 mm 0 W/m -1,6 C -0,3 C 0,0 km/h (0 Bft) 97 %
25.02.2016 00:10 -0,2 C -0,3 C -0,2 C 91 % 1012,2 hPa 0,0 l/m 0,0 km/h (0 Bft) N 0 0 min 0,000 mm 0 W/m -1,5 C -0,2 C 0,0 km/h (0 Bft) 98 %
25.02.2016 00:20 -0,3 C -0,3 C -0,2 C 91 % 1012,0 hPa 0,0 l/m 0,0 km/h (0 Bft) NW 315 0 min 0,000 mm 0 W/m -1,6 C -0,3 C 1,6 km/h (1 Bft) 97 %
25.02.2016 00:30 -0,3 C -0,3 C -0,2 C 91 % 1012,0 hPa 0,0 l/m 1,6 km/h (1 Bft) NW 315 0 min 0,000 mm 0 W/m -1,6 C -0,3 C 4,8 km/h (1 Bft) 97 %
25.02.2016 00:40 -0,3 C -0,3 C -0,3 C 91 % 1011,9 hPa 0,0 l/m 1,6 km/h (1 Bft) NW 315 0 min 0,000 mm 0 W/m -1,6 C -0,3 C 4,8 km/h (1 Bft) 97 %
25.02.2016 00:50 -0,2 C -0,3 C -0,2 C 91 % 1011,9 hPa 0,0 l/m 0,0 km/h (0 Bft) NW 315 0 min 0,000 mm 0 W/m -1,5 C -0,2 C 1,6 km/h (1 Bft) 89 %
25.02.2016 01:00 -0,2 C -0,2 C -0,2 C 91 % 1011,8 hPa 0,0 l/m 0,0 km/h (0 Bft) NW 315 0 min 0,000 mm 0 W/m -1,5 C -0,2 C 3,2 km/h (1 Bft) 98 %
25.02.2016 01:10 -0,2 C -0,2 C -0,2 C 91 % 1011,7 hPa 0,0 l/m 0,0 km/h (0 Bft) N 0 0 min 0,000 mm 0 W/m -1,5 C -0,2 C 0,0 km/h (0 Bft) 98 %
25.02.2016 01:20 -0,2 C -0,2 C -0,1 C 91 % 1011,6 hPa 0,0 l/m 0,0 km/h (0 Bft) N 0 0 min 0,000 mm 0 W/m -1,5 C -0,2 C 0,0 km/h (0 Bft) 98 %
25.02.2016 01:30 -0,1 C -0,2 C -0,1 C 91 % 1011,5 hPa 0,0 l/m 0,0 km/h (0 Bft) NW 315 0 min 0,000 mm 0 W/m -1,4 C -0,1 C 1,6 km/h (1 Bft) 97 %
25.02.2016 01:40 0,1 C -0,1 C 0,1 C 91 % 1011,5 hPa 0,0 l/m 0,0 km/h (0 Bft) N 0 0 min 0,000 mm 0 W/m -1,2 C 0,1 C 0,0 km/h (0 Bft) 97 %
25.02.2016 01:50 0,2 C 0,1 C 0,2 C 91 % 1011,4 hPa 0,0 l/m 0,0 km/h (0 Bft) NW 315 0 min 0,000 mm 0 W/m -1,1 C 0,2 C 1,6 km/h (1 Bft) 97 %
25.02.2016 02:00 0,2 C 0,2 C 0,2 C 90 % 1011,4 hPa 0,0 l/m 0,0 km/h (0 Bft) N 0 0 min 0,000 mm 0 W/m -1,2 C 0,2 C 0,0 km/h (0 Bft) 98 %
25.02.2016 02:10 0,3 C 0,2 C 0,3 C 90 % 1011,3 hPa 0,0 l/m 0,0 km/h (0 Bft) NW 315 0 min 0,000 mm 0 W/m -1,1 C 0,3 C 1,6 km/h (1 Bft) 89 %
25.02.2016 02:20 0,2 C 0,2 C 0,3 C 90 % 1011,3 hPa 0,0 l/m 0,0 km/h (0 Bft) NW 315 0 min 0,000 mm 0 W/m -1,2 C 0,2 C 4,8 km/h (1 Bft) 97 %
25.02.2016 02:30 0,2 C 0,2 C 0,3 C 90 % 1011,2 hPa 0,0 l/m 0,0 km/h (0 Bft) N 0 0 min 0,000 mm 0 W/m -1,2 C 0,2 C 0,0 km/h (0 Bft) 98 %
25.02.2016 02:40 0,3 C 0,2 C 0,3 C 90 % 1011,3 hPa 0,0 l/m 0,0 km/h (0 Bft) N 0 0 min 0,000 mm 0 W/m -1,1 C 0,3 C 0,0 km/h (0 Bft) 97 %
25.02.2016 02:50 0,3 C 0,2 C 0,3 C 90 % 1011,3 hPa 0,0 l/m 0,0 km/h (0 Bft) NW 315 0 min 0,000 mm 0 W/m -1,1 C 0,3 C 1,6 km/h (1 Bft) 98 %
25.02.2016 03:00 0,2 C 0,2 C 0,3 C 91 % 1011,1 hPa 0,0 l/m 0,0 km/h (0 Bft) N 0 0 min 0,000 mm 0 W/m -1,1 C 0,2 C 0,0 km/h (0 Bft) 98 %
25.02.2016 03:10 0,2 C 0,2 C 0,3 C 91 % 1011,0 hPa 0,0 l/m 0,0 km/h (0 Bft) N 0 0 min 0,000 mm 0 W/m -1,1 C 0,2 C 0,0 km/h (0 Bft) 98 %
25.02.2016 03:20 0,2 C 0,2 C 0,2 C 91 % 1011,0 hPa 0,0 l/m 0,0 km/h (0 Bft) N 0 0 min 0,000 mm 0 W/m -1,1 C 0,2 C 0,0 km/h (0 Bft) 98 %
25.02.2016 03:30 0,2 C 0,2 C 0,2 C 91 % 1011,0 hPa 0,0 l/m 0,0 km/h (0 Bft) NW 315 0 min 0,000 mm 0 W/m -1,1 C 0,2 C 4,8 km/h (1 Bft) 98 %
25.02.2016 03:40 0,1 C 0,1 C 0,2 C 91 % 1010,9 hPa 0,0 l/m 0,0 km/h (0 Bft) NW 315 0 min 0,000 mm 0 W/m -1,2 C 0,1 C 1,6 km/h (1 Bft) 98 %
25.02.2016 03:50 0,1 C 0,1 C 0,1 C 91 % 1010,8 hPa 0,0 l/m 0,0 km/h (0 Bft) N-NW 337 0 min 0,000 mm 0 W/m -1,2 C 0,1 C 3,2 km/h (1 Bft) 97 %
25.02.2016 04:00 0,1 C 0,1 C 0,1 C 91 % 1010,7 hPa 0,0 l/m 0,0 km/h (0 Bft) N-NW 337 0 min 0,000 mm 0 W/m -1,2 C 0,1 C 3,2 km/h (1 Bft) 97 %
25.02.2016 04:10 0,1 C 0,1 C 0,1 C 91 % 1010,7 hPa 0,0 l/m 0,0 km/h (0 Bft) N 0 0 min 0,000 mm 0 W/m -1,2 C 0,1 C 0,0 km/h (0 Bft) 97 %
25.02.2016 04:20 0,1 C 0,1 C 0,1 C 91 % 1010,7 hPa 0,0 l/m 0,0 km/h (0 Bft) N 0 0 min 0,000 mm 0 W/m -1,2 C 0,1 C 0,0 km/h (0 Bft) 98 %
25.02.2016 04:30 0,1 C 0,1 C 0,1 C 91 % 1010,7 hPa 0,0 l/m 0,0 km/h (0 Bft) N 0 0 min 0,000 mm 0 W/m -1,2 C 0,1 C 0,0 km/h (0 Bft) 98 %
25.02.2016 04:40 0,1 C 0,1 C 0,1 C 91 % 1010,7 hPa 0,0 l/m 0,0 km/h (0 Bft) N 0 0 min 0,000 mm 0 W/m -1,2 C 0,1 C 0,0 km/h (0 Bft) 98 %
25.02.2016 04:50 0,1 C 0,1 C 0,1 C 91 % 1010,7 hPa 0,0 l/m 0,0 km/h (0 Bft) N-NW 337 0 min 0,000 mm 0 W/m -1,2 C 0,1 C 1,6 km/h (1 Bft) 97 %
25.02.2016 05:00 0,0 C 0,0 C 0,1 C 91 % 1010,7 hPa 0,0 l/m 0,0 km/h (0 Bft) N 0 0 min 0,000 mm 0 W/m -1,3 C 0,0 C 0,0 km/h (0 Bft) 88 %
25.02.2016 05:10 0,0 C 0,0 C 0,1 C 91 % 1010,7 hPa 0,2 l/m 0,0 km/h (0 Bft) N 0 0 min 0,000 mm 0 W/m -1,3 C 0,0 C 0,0 km/h (0 Bft) 98 %
25.02.2016 05:20 0,1 C 0,0 C 0,1 C 91 % 1010,8 hPa 0,0 l/m 0,0 km/h (0 Bft) N 0 0 min 0,000 mm 0 W/m -1,2 C 0,1 C 0,0 km/h (0 Bft) 98 %
25.02.2016 05:30 0,1 C 0,1 C 0,1 C 91 % 1010,9 hPa 0,2 l/m 0,0 km/h (0 Bft) N 0 0 min 0,000 mm 0 W/m -1,2 C 0,1 C 0,0 km/h (0 Bft) 98 %
25.02.2016 05:40 0,1 C 0,1 C 0,1 C 91 % 1010,9 hPa 0,0 l/m 0,0 km/h (0 Bft) N 0 0 min 0,000 mm 0 W/m -1,2 C 0,1 C 0,0 km/h (0 Bft) 98 %
25.02.2016 05:50 0,1 C 0,1 C 0,1 C 91 % 1010,9 hPa 0,2 l/m 0,0 km/h (0 Bft) N-NW 337 0 min 0,000 mm 0 W/m -1,2 C 0,1 C 1,6 km/h (1 Bft) 98 %
25.02.2016 06:00 0,0 C 0,0 C 0,1 C 91 % 1011,1 hPa 0,0 l/m 0,0 km/h (0 Bft) N 0 0 min 0,000 mm 0 W/m -1,3 C 0,0 C 0,0 km/h (0 Bft) 98 %
25.02.2016 06:10 -0,1 C -0,1 C 0,0 C 92 % 1011,1 hPa 0,2 l/m 0,0 km/h (0 Bft) N 0 0 min 0,000 mm 0 W/m -1,2 C -0,1 C 0,0 km/h (0 Bft) 98 %
25.02.2016 06:20 -0,1 C -0,1 C -0,1 C 92 % 1011,1 hPa 0,0 l/m 0,0 km/h (0 Bft) N-NW 337 0 min 0,000 mm 0 W/m -1,2 C -0,1 C 1,6 km/h (1 Bft) 98 %
25.02.2016 06:30 -0,1 C -0,1 C -0,1 C 92 % 1011,0 hPa 0,0 l/m 0,0 km/h (0 Bft) N-NW 337 0 min 0,000 mm 0 W/m -1,2 C -0,1 C 1,6 km/h (1 Bft) 98 %
25.02.2016 06:40 0,1 C -0,1 C 0,1 C 92 % 1011,0 hPa 0,0 l/m 0,0 km/h (0 Bft) N-NW 337 0 min 0,000 mm 0 W/m -1,0 C 0,1 C 3,2 km/h (1 Bft) 98 %
25.02.2016 06:50 0,2 C 0,1 C 0,2 C 91 % 1011,0 hPa 0,0 l/m 0,0 km/h (0 Bft) N 0 0 min 0,000 mm 0 W/m -1,1 C 0,2 C 0,0 km/h (0 Bft) 98 %
25.02.2016 07:00 0,2 C 0,2 C 0,2 C 92 % 1011,0 hPa 0,0 l/m 0,0 km/h (0 Bft) N-NW 337 0 min 0,000 mm 0 W/m -0,9 C 0,2 C 1,6 km/h (1 Bft) 97 %
25.02.2016 07:10 0,2 C 0,2 C 0,2 C 92 % 1011,0 hPa 0,0 l/m 0,0 km/h (0 Bft) N-NW 337 0 min 0,000 mm 0 W/m -0,9 C 0,2 C 3,2 km/h (1 Bft) 98 %
25.02.2016 07:20 0,1 C 0,1 C 0,2 C 92 % 1011,0 hPa 0,0 l/m 0,0 km/h (0 Bft) N 0 0 min 0,000 mm 0 W/m -1,0 C 0,1 C 0,0 km/h (0 Bft) 98 %
25.02.2016 07:30 0,1 C 0,0 C 0,1 C 92 % 1011,0 hPa 0,0 l/m 0,0 km/h (0 Bft) N-NW 337 0 min 0,000 mm 0 W/m -1,0 C 0,1 C 1,6 km/h (1 Bft) 97 %
25.02.2016 07:40 0,0 C 0,0 C 0,1 C 92 % 1011,1 hPa 0,0 l/m 0,0 km/h (0 Bft) N 0 0 min 0,000 mm 0 W/m -1,1 C 0,0 C 0,0 km/h (0 Bft) 92 %
25.02.2016 07:50 0,0 C 0,0 C 0,0 C 92 % 1011,1 hPa 0,0 l/m 0,0 km/h (0 Bft) N-NW 337 0 min 0,000 mm 5 W/m -1,1 C 0,0 C 3,2 km/h (1 Bft) 94 %
25.02.2016 08:00 0,0 C -0,1 C 0,0 C 92 % 1011,2 hPa 0,0 l/m 0,0 km/h (0 Bft) N-NW 337 0 min 0,000 mm 9 W/m -1,1 C 0,0 C 1,6 km/h (1 Bft) 98 %
25.02.2016 08:10 0,1 C 0,0 C 0,1 C 92 % 1011,3 hPa 0,0 l/m 0,0 km/h (0 Bft) N-NW 337 0 min 0,000 mm 12 W/m -1,0 C 0,1 C 1,6 km/h (1 Bft) 97 %
25.02.2016 08:20 0,1 C 0,1 C 0,1 C 91 % 1011,4 hPa 0,0 l/m 0,0 km/h (0 Bft) N-NW 337 0 min 0,000 mm 14 W/m -1,2 C 0,1 C 1,6 km/h (1 Bft) 97 %
25.02.2016 08:30 0,1 C 0,1 C 0,1 C 91 % 1011,5 hPa 0,0 l/m 0,0 km/h (0 Bft) N 0 0 min 0,000 mm 35 W/m -1,2 C 0,1 C 0,0 km/h (0 Bft) 98 %
25.02.2016 08:40 0,4 C 0,1 C 0,4 C 92 % 1011,7 hPa 0,0 l/m 0,0 km/h (0 Bft) N 0 0 min 0,000 mm 114 W/m -0,7 C 0,4 C 0,0 km/h (0 Bft) 98 %
25.02.2016 08:50 0,9 C 0,4 C 0,9 C 92 % 1011,8 hPa 0,0 l/m 0,0 km/h (0 Bft) N-NW 337 10 min 0,000 mm 197 W/m -0,2 C 0,9 C 3,2 km/h (1 Bft) 97 %
25.02.2016 09:00 1,4 C 0,9 C 1,4 C 91 % 1011,8 hPa 0,0 l/m 0,0 km/h (0 Bft) N-NW 337 10 min 0,025 mm 295 W/m 0,1 C 1,4 C 3,2 km/h (1 Bft) 98 %
25.02.2016 09:10 1,8 C 1,4 C 1,8 C 90 % 1011,9 hPa 0,0 l/m 0,0 km/h (0 Bft) N-NW 337 10 min 0,000 mm 241 W/m 0,3 C 1,8 C 1,6 km/h (1 Bft) 87 %
25.02.2016 09:20 2,3 C 1,9 C 2,3 C 88 % 1012,0 hPa 0,0 l/m 0,0 km/h (0 Bft) N-NW 337 10 min 0,000 mm 260 W/m 0,5 C 2,3 C 4,8 km/h (1 Bft) 99 %
25.02.2016 09:30 2,8 C 2,3 C 2,8 C 85 % 1012,0 hPa 0,0 l/m 0,0 km/h (0 Bft) N-NW 337 10 min 0,000 mm 285 W/m 0,5 C 2,8 C 1,6 km/h (1 Bft) 100 %
25.02.2016 09:40 3,3 C 2,8 C 3,3 C 84 % 1012,1 hPa 0,0 l/m 0,0 km/h (0 Bft) N 0 10 min 0,000 mm 343 W/m 0,9 C 3,3 C 0,0 km/h (0 Bft) 100 %
25.02.2016 09:50 3,7 C 3,3 C 3,8 C 80 % 1012,1 hPa 0,0 l/m 0,0 km/h (0 Bft) N-NW 337 10 min 0,000 mm 346 W/m 0,6 C 3,7 C 4,8 km/h (1 Bft) 100 %
25.02.2016 10:00 3,8 C 3,7 C 3,8 C 79 % 1012,1 hPa 0,0 l/m 0,0 km/h (0 Bft) N-NW 337 10 min 0,102 mm 364 W/m 0,5 C 3,8 C 1,6 km/h (1 Bft) 100 %
25.02.2016 10:10 3,8 C 3,8 C 3,9 C 77 % 1012,1 hPa 0,0 l/m 0,0 km/h (0 Bft) N-NW 337 10 min 0,000 mm 360 W/m 0,1 C 3,8 C 1,6 km/h (1 Bft) 100 %
25.02.2016 10:20 4,0 C 3,8 C 4,0 C 77 % 1012,1 hPa 0,0 l/m 0,0 km/h (0 Bft) N-NW 337 10 min 0,000 mm 388 W/m 0,3 C 4,0 C 6,4 km/h (2 Bft) 100 %
25.02.2016 10:30 4,4 C 4,0 C 4,4 C 78 % 1012,1 hPa 0,0 l/m 1,6 km/h (1 Bft) N-NW 337 10 min 0,000 mm 404 W/m 0,9 C 4,4 C 8,0 km/h (2 Bft) 100 %
25.02.2016 10:40 4,7 C 4,4 C 4,7 C 76 % 1012,1 hPa 0,0 l/m 3,2 km/h (1 Bft) NW 315 10 min 0,000 mm 417 W/m 0,8 C 4,7 C 11,3 km/h (2 Bft) 100 %
25.02.2016 10:50 5,1 C 4,7 C 5,1 C 74 % 1012,1 hPa 0,0 l/m 0,0 km/h (0 Bft) NW 315 10 min 0,000 mm 436 W/m 0,9 C 5,1 C 4,8 km/h (1 Bft) 100 %
25.02.2016 11:00 5,3 C 5,1 C 5,3 C 76 % 1012,2 hPa 0,0 l/m 0,0 km/h (0 Bft) NW 315 10 min 0,152 mm 457 W/m 1,4 C 5,3 C 4,8 km/h (1 Bft) 100 %
25.02.2016 11:10 5,7 C 5,3 C 5,7 C 71 % 1012,2 hPa 0,0 l/m 1,6 km/h (1 Bft) NW 315 10 min 0,000 mm 517 W/m 0,9 C 5,7 C 8,0 km/h (2 Bft) 100 %
25.02.2016 11:20 5,9 C 5,7 C 5,9 C 69 % 1012,1 hPa 0,0 l/m 0,0 km/h (0 Bft) N 360 10 min 0,000 mm 671 W/m 0,7 C 5,9 C 4,8 km/h (1 Bft) 100 %
25.02.2016 11:30 6,4 C 6,0 C 6,4 C 69 % 1012,2 hPa 0,0 l/m 1,6 km/h (1 Bft) NW 315 10 min 0,000 mm 694 W/m 1,1 C 6,4 C 11,3 km/h (2 Bft) 100 %
25.02.2016 11:40 6,3 C 6,3 C 6,4 C 67 % 1012,3 hPa 0,0 l/m 3,2 km/h (1 Bft) NW 315 10 min 0,000 mm 165 W/m 0,6 C 6,3 C 8,0 km/h (2 Bft) 100 %
25.02.2016 11:50 5,5 C 5,5 C 6,3 C 66 % 1012,5 hPa 0,0 l/m 3,2 km/h (1 Bft) NW 315 0 min 0,000 mm 125 W/m -0,3 C 5,5 C 16,1 km/h (3 Bft) 100 %
25.02.2016 12:00 5,1 C 5,1 C 5,5 C 67 % 1012,5 hPa 0,0 l/m 4,8 km/h (1 Bft) NW 315 0 min 0,152 mm 134 W/m -0,5 C 5,1 C 14,5 km/h (3 Bft) 100 %
25.02.2016 12:10 5,1 C 5,1 C 5,1 C 68 % 1012,5 hPa 0,0 l/m 3,2 km/h (1 Bft) NW 315 10 min 0,000 mm 232 W/m -0,3 C 5,1 C 8,0 km/h (2 Bft) 100 %
25.02.2016 12:20 5,5 C 5,1 C 5,5 C 69 % 1012,5 hPa 0,0 l/m 0,0 km/h (0 Bft) NW 315 10 min 0,000 mm 271 W/m 0,3 C 5,5 C 8,0 km/h (2 Bft) 100 %
25.02.2016 12:30 5,7 C 5,5 C 5,7 C 67 % 1012,5 hPa 0,0 l/m 8,0 km/h (2 Bft) NW 315 10 min 0,000 mm 216 W/m 0,1 C 4,3 C 20,9 km/h (4 Bft) 100 %
25.02.2016 12:40 5,4 C 5,4 C 5,7 C 67 % 1012,5 hPa 0,0 l/m 6,4 km/h (2 Bft) N-NW 337 10 min 0,000 mm 221 W/m -0,2 C 5,4 C 16,1 km/h (3 Bft) 100 %
25.02.2016 12:50 5,3 C 5,3 C 5,4 C 66 % 1012,6 hPa 0,0 l/m 3,2 km/h (1 Bft) N-NW 337 10 min 0,000 mm 230 W/m -0,5 C 5,3 C 16,1 km/h (3 Bft) 100 %
25.02.2016 13:00 5,4 C 5,3 C 5,4 C 66 % 1012,6 hPa 0,0 l/m 4,8 km/h (1 Bft) N-NW 337 10 min 0,102 mm 239 W/m -0,4 C 5,4 C 14,5 km/h (3 Bft) 100 %
25.02.2016 13:10 5,6 C 5,4 C 5,6 C 64 % 1012,5 hPa 0,0 l/m 1,6 km/h (1 Bft) NW 315 10 min 0,000 mm 657 W/m -0,7 C 5,6 C 9,7 km/h (2 Bft) 100 %
25.02.2016 13:20 6,1 C 5,6 C 6,1 C 66 % 1012,5 hPa 0,0 l/m 6,4 km/h (2 Bft) NW 315 10 min 0,000 mm 631 W/m 0,2 C 6,1 C 19,3 km/h (3 Bft) 100 %
25.02.2016 13:30 6,5 C 6,1 C 6,5 C 60 % 1012,5 hPa 0,0 l/m 6,4 km/h (2 Bft) NW 315 10 min 0,000 mm 448 W/m -0,7 C 6,5 C 16,1 km/h (3 Bft) 100 %
25.02.2016 13:40 6,3 C 6,3 C 6,5 C 57 % 1012,5 hPa 0,0 l/m 4,8 km/h (1 Bft) NW 315 10 min 0,000 mm 156 W/m -1,6 C 6,3 C 16,1 km/h (3 Bft) 100 %
25.02.2016 13:50 5,8 C 5,8 C 6,3 C 59 % 1012,5 hPa 0,0 l/m 8,0 km/h (2 Bft) NW 315 10 min 0,000 mm 181 W/m -1,6 C 4,4 C 17,7 km/h (3 Bft) 100 %
25.02.2016 14:00 5,7 C 5,7 C 5,8 C 60 % 1012,5 hPa 0,0 l/m 8,0 km/h (2 Bft) NW 315 10 min 0,178 mm 473 W/m -1,4 C 4,3 C 16,1 km/h (3 Bft) 100 %
25.02.2016 14:10 6,3 C 5,7 C 6,3 C 55 % 1012,5 hPa 0,0 l/m 4,8 km/h (1 Bft) NW 315 10 min 0,000 mm 475 W/m -2,1 C 6,3 C 14,5 km/h (3 Bft) 100 %
25.02.2016 14:20 6,4 C 6,3 C 6,4 C 52 % 1012,6 hPa 0,0 l/m 4,8 km/h (1 Bft) NW 315 10 min 0,000 mm 476 W/m -2,7 C 6,4 C 14,5 km/h (3 Bft) 100 %
25.02.2016 14:30 5,8 C 5,8 C 6,4 C 53 % 1012,7 hPa 0,0 l/m 4,8 km/h (1 Bft) NW 315 0 min 0,000 mm 86 W/m -3,0 C 5,8 C 16,1 km/h (3 Bft) 100 %
25.02.2016 14:40 5,8 C 5,7 C 5,8 C 55 % 1012,7 hPa 0,0 l/m 6,4 km/h (2 Bft) NW 315 10 min 0,000 mm 469 W/m -2,5 C 5,8 C 19,3 km/h (3 Bft) 100 %
25.02.2016 14:50 6,6 C 5,9 C 6,6 C 53 % 1012,7 hPa 0,0 l/m 9,7 km/h (2 Bft) NW 315 10 min 0,000 mm 469 W/m -2,3 C 4,0 C 17,7 km/h (3 Bft) 100 %
25.02.2016 15:00 6,2 C 6,2 C 6,6 C 53 % 1012,8 hPa 0,0 l/m 9,7 km/h (2 Bft) NW 315 0 min 0,152 mm 128 W/m -2,7 C 3,6 C 20,9 km/h (4 Bft) 100 %
25.02.2016 15:10 6,0 C 6,0 C 6,2 C 55 % 1012,8 hPa 0,0 l/m 4,8 km/h (1 Bft) N-NW 337 10 min 0,000 mm 211 W/m -2,3 C 6,0 C 17,7 km/h (3 Bft) 100 %
25.02.2016 15:20 6,2 C 6,0 C 6,2 C 55 % 1012,9 hPa 0,0 l/m 9,7 km/h (2 Bft) NW 315 10 min 0,000 mm 172 W/m -2,2 C 3,6 C 19,3 km/h (3 Bft) 99 %
25.02.2016 15:30 6,0 C 6,0 C 6,2 C 54 % 1013,0 hPa 0,0 l/m 8,0 km/h (2 Bft) N-NW 337 0 min 0,000 mm 137 W/m -2,6 C 4,7 C 19,3 km/h (3 Bft) 92 %
25.02.2016 15:40 5,5 C 5,5 C 6,0 C 50 % 1013,0 hPa 0,0 l/m 9,7 km/h (2 Bft) NW 315 0 min 0,000 mm 88 W/m -4,1 C 2,8 C 22,5 km/h (4 Bft) 100 %
25.02.2016 15:50 5,4 C 5,3 C 5,4 C 51 % 1013,0 hPa 0,0 l/m 6,4 km/h (2 Bft) NW 315 0 min 0,000 mm 67 W/m -3,9 C 5,4 C 16,1 km/h (3 Bft) 100 %
25.02.2016 16:00 5,8 C 5,5 C 5,8 C 52 % 1013,1 hPa 0,0 l/m 6,4 km/h (2 Bft) NW 315 0 min 0,076 mm 121 W/m -3,3 C 5,8 C 17,7 km/h (3 Bft) 100 %
25.02.2016 16:10 6,1 C 5,8 C 6,1 C 56 % 1013,1 hPa 0,0 l/m 8,0 km/h (2 Bft) NW 315 0 min 0,000 mm 125 W/m -2,0 C 4,8 C 17,7 km/h (3 Bft) 100 %
25.02.2016 16:20 5,8 C 5,8 C 6,1 C 55 % 1013,1 hPa 0,0 l/m 11,3 km/h (2 Bft) NW 315 0 min 0,000 mm 125 W/m -2,5 C 2,1 C 25,7 km/h (4 Bft) 100 %
25.02.2016 16:30 5,5 C 5,5 C 5,8 C 54 % 1013,2 hPa 0,0 l/m 8,0 km/h (2 Bft) NW 315 0 min 0,000 mm 83 W/m -3,1 C 4,1 C 22,5 km/h (4 Bft) 98 %
25.02.2016 16:40 5,0 C 5,0 C 5,5 C 58 % 1013,3 hPa 0,0 l/m 6,4 km/h (2 Bft) N-NW 337 0 min 0,000 mm 56 W/m -2,6 C 5,0 C 24,1 km/h (4 Bft) 98 %
25.02.2016 16:50 4,4 C 4,4 C 4,9 C 58 % 1013,2 hPa 0,0 l/m 8,0 km/h (2 Bft) NW 315 0 min 0,000 mm 39 W/m -3,1 C 3,0 C 19,3 km/h (3 Bft) 98 %
25.02.2016 17:00 4,0 C 4,0 C 4,3 C 58 % 1013,3 hPa 0,0 l/m 3,2 km/h (1 Bft) N-NW 337 0 min 0,051 mm 33 W/m -3,5 C 4,0 C 14,5 km/h (3 Bft) 98 %
25.02.2016 17:10 3,9 C 3,9 C 4,0 C 60 % 1013,4 hPa 0,0 l/m 0,0 km/h (0 Bft) NW 315 0 min 0,000 mm 28 W/m -3,1 C 3,9 C 4,8 km/h (1 Bft) 98 %
25.02.2016 17:20 3,9 C 3,9 C 3,9 C 61 % 1013,5 hPa 0,0 l/m 0,0 km/h (0 Bft) NW 315 0 min 0,000 mm 28 W/m -2,9 C 3,9 C 6,4 km/h (2 Bft) 97 %
25.02.2016 17:30 4,0 C 3,9 C 4,0 C 60 % 1013,5 hPa 0,0 l/m 0,0 km/h (0 Bft) N-NW 337 0 min 0,000 mm 23 W/m -3,0 C 4,0 C 4,8 km/h (1 Bft) 98 %
25.02.2016 17:40 3,8 C 3,8 C 4,0 C 60 % 1013,6 hPa 0,0 l/m 0,0 km/h (0 Bft) N 0 0 min 0,000 mm 12 W/m -3,2 C 3,8 C 0,0 km/h (0 Bft) 86 %
25.02.2016 17:50 3,5 C 3,5 C 3,8 C 61 % 1013,8 hPa 0,0 l/m 0,0 km/h (0 Bft) N 0 0 min 0,000 mm 9 W/m -3,3 C 3,5 C 0,0 km/h (0 Bft) 97 %
25.02.2016 18:10 2,8 C 2,8 C 3,8 C 63 % 1013,9 hPa 0,0 l/m 0,0 km/h (0 Bft) N-NW 329 0 min 0,001 mm 0 W/m -3,5 C 2,8 C 0,0 km/h (0 Bft) 100 %
25.02.2016 18:20 2,3 C 2,3 C 2,8 C 63 % 1014,0 hPa 0,0 l/m 0,0 km/h (0 Bft) N-NW 329 0 min 0,000 mm 0 W/m -4,0 C 2,3 C 0,0 km/h (0 Bft) 100 %
25.02.2016 18:30 1,8 C 1,8 C 2,3 C 67 % 1014,2 hPa 0,0 l/m 0,0 km/h (0 Bft) N-NW 329 0 min 0,000 mm 0 W/m -3,7 C 1,8 C 0,0 km/h (0 Bft) 91 %
25.02.2016 18:40 1,4 C 1,4 C 1,8 C 68 % 1014,3 hPa 0,0 l/m 0,0 km/h (0 Bft) N-NW 329 0 min 0,000 mm 0 W/m -3,8 C 1,4 C 1,6 km/h (1 Bft) 100 %
25.02.2016 18:50 1,3 C 1,3 C 1,4 C 68 % 1014,4 hPa 0,0 l/m 0,0 km/h (0 Bft) N-NW 329 0 min 0,000 mm 0 W/m -3,9 C 1,3 C 0,0 km/h (0 Bft) 100 %
25.02.2016 19:00 1,1 C 1,1 C 1,3 C 68 % 1014,6 hPa 0,0 l/m 0,0 km/h (0 Bft) N-NW 329 0 min 0,000 mm 0 W/m -4,1 C 1,1 C 0,0 km/h (0 Bft) 100 %
25.02.2016 19:10 0,8 C 0,8 C 1,1 C 67 % 1014,6 hPa 0,0 l/m 0,0 km/h (0 Bft) N-NW 329 0 min 0,000 mm 0 W/m -4,6 C 0,8 C 0,0 km/h (0 Bft) 100 %
25.02.2016 19:20 0,6 C 0,6 C 0,8 C 69 % 1014,8 hPa 0,0 l/m 0,0 km/h (0 Bft) N-NW 329 0 min 0,000 mm 0 W/m -4,4 C 0,6 C 0,0 km/h (0 Bft) 100 %
25.02.2016 19:30 0,5 C 0,5 C 0,6 C 71 % 1014,8 hPa 0,0 l/m 0,0 km/h (0 Bft) N-NW 329 0 min 0,000 mm 0 W/m -4,1 C 0,5 C 0,0 km/h (0 Bft) 100 %
25.02.2016 19:40 0,2 C 0,2 C 0,5 C 71 % 1014,8 hPa 0,0 l/m 0,0 km/h (0 Bft) N-NW 330 0 min 0,000 mm 0 W/m -4,4 C 0,2 C 0,0 km/h (0 Bft) 100 %
25.02.2016 19:50 0,1 C 0,1 C 0,2 C 72 % 1014,9 hPa 0,0 l/m 0,0 km/h (0 Bft) N-NW 329 0 min 0,000 mm 0 W/m -4,3 C 0,1 C 0,0 km/h (0 Bft) 100 %
25.02.2016 20:00 -0,1 C -0,1 C 0,1 C 74 % 1014,8 hPa 0,0 l/m 0,0 km/h (0 Bft) N-NW 329 0 min 0,025 mm 0 W/m -4,2 C -0,1 C 0,0 km/h (0 Bft) 100 %
25.02.2016 20:10 -0,3 C -0,3 C -0,1 C 75 % 1014,8 hPa 0,0 l/m 0,0 km/h (0 Bft) N-NW 329 0 min 0,000 mm 0 W/m -4,2 C -0,3 C 0,0 km/h (0 Bft) 100 %
25.02.2016 20:20 -0,6 C -0,6 C -0,3 C 77 % 1014,8 hPa 0,0 l/m 0,0 km/h (0 Bft) N-NW 330 0 min 0,000 mm 0 W/m -4,1 C -0,6 C 1,6 km/h (1 Bft) 100 %
25.02.2016 20:30 -0,9 C -0,9 C -0,6 C 78 % 1014,9 hPa 0,0 l/m 0,0 km/h (0 Bft) N-NW 329 0 min 0,000 mm 0 W/m -4,2 C -0,9 C 1,6 km/h (1 Bft) 91 %
25.02.2016 20:40 -1,1 C -1,1 C -0,9 C 77 % 1015,0 hPa 0,0 l/m 0,0 km/h (0 Bft) N-NW 329 0 min 0,000 mm 0 W/m -4,6 C -1,1 C 0,0 km/h (0 Bft) 100 %
25.02.2016 20:50 -1,2 C -1,2 C -1,1 C 79 % 1015,0 hPa 0,0 l/m 0,0 km/h (0 Bft) N-NW 329 0 min 0,000 mm 0 W/m -4,4 C -1,2 C 0,0 km/h (0 Bft) 100 %
25.02.2016 21:00 -1,3 C -1,3 C -1,2 C 78 % 1015,1 hPa 0,0 l/m 0,0 km/h (0 Bft) N-NW 329 0 min 0,000 mm 0 W/m -4,6 C -1,3 C 0,0 km/h (0 Bft) 100 %
25.02.2016 21:10 -1,2 C -1,3 C -1,2 C 79 % 1015,2 hPa 0,0 l/m 0,0 km/h (0 Bft) N-NW 329 0 min 0,000 mm 0 W/m -4,4 C -1,2 C 0,0 km/h (0 Bft) 100 %
25.02.2016 21:20 -1,3 C -1,3 C -1,2 C 79 % 1015,3 hPa 0,0 l/m 0,0 km/h (0 Bft) N 0 0 min 0,000 mm 0 W/m -4,5 C -1,3 C 0,0 km/h (0 Bft) 98 %
25.02.2016 21:30 -1,4 C -1,4 C -1,3 C 79 % 1015,4 hPa 0,0 l/m 0,0 km/h (0 Bft) N 0 0 min 0,000 mm 0 W/m -4,6 C -1,4 C 0,0 km/h (0 Bft) 97 %
25.02.2016 21:40 -1,3 C -1,4 C -1,3 C 80 % 1015,4 hPa 0,0 l/m 0,0 km/h (0 Bft) N 0 0 min 0,000 mm 0 W/m -4,3 C -1,3 C 0,0 km/h (0 Bft) 98 %
25.02.2016 21:50 -1,4 C -1,4 C -1,3 C 81 % 1015,6 hPa 0,0 l/m 0,0 km/h (0 Bft) N 0 0 min 0,000 mm 0 W/m -4,2 C -1,4 C 0,0 km/h (0 Bft) 98 %
25.02.2016 22:00 -1,6 C -1,6 C -1,4 C 82 % 1015,6 hPa 0,0 l/m 0,0 km/h (0 Bft) N 0 0 min 0,000 mm 0 W/m -4,3 C -1,6 C 0,0 km/h (0 Bft) 97 %
25.02.2016 22:10 -1,8 C -1,8 C -1,6 C 82 % 1015,6 hPa 0,0 l/m 0,0 km/h (0 Bft) N 0 0 min 0,000 mm 0 W/m -4,5 C -1,8 C 0,0 km/h (0 Bft) 98 %
25.02.2016 22:20 -2,1 C -2,1 C -1,8 C 83 % 1015,8 hPa 0,0 l/m 0,0 km/h (0 Bft) N 0 0 min 0,000 mm 0 W/m -4,6 C -2,1 C 0,0 km/h (0 Bft) 97 %
25.02.2016 22:30 -2,2 C -2,2 C -2,1 C 84 % 1015,7 hPa 0,0 l/m 0,0 km/h (0 Bft) N 0 0 min 0,000 mm 0 W/m -4,5 C -2,2 C 0,0 km/h (0 Bft) 98 %
25.02.2016 22:40 -2,3 C -2,3 C -2,2 C 85 % 1015,7 hPa 0,0 l/m 0,0 km/h (0 Bft) N 0 0 min 0,000 mm 0 W/m -4,5 C -2,3 C 0,0 km/h (0 Bft) 97 %
25.02.2016 22:50 -2,4 C -2,4 C -2,3 C 85 % 1015,7 hPa 0,0 l/m 0,0 km/h (0 Bft) N-NW 337 0 min 0,000 mm 0 W/m -4,6 C -2,4 C 1,6 km/h (1 Bft) 98 %
25.02.2016 23:00 -2,5 C -2,5 C -2,4 C 86 % 1015,7 hPa 0,0 l/m 0,0 km/h (0 Bft) N-NW 337 0 min 0,000 mm 0 W/m -4,5 C -2,5 C 1,6 km/h (1 Bft) 98 %
25.02.2016 23:10 -2,5 C -2,6 C -2,5 C 87 % 1015,6 hPa 0,0 l/m 0,0 km/h (0 Bft) N-NW 337 0 min 0,000 mm 0 W/m -4,4 C -2,5 C 1,6 km/h (1 Bft) 97 %
25.02.2016 23:20 -2,4 C -2,5 C -2,4 C 87 % 1015,6 hPa 0,0 l/m 0,0 km/h (0 Bft) N 0 0 min 0,000 mm 0 W/m -4,3 C -2,4 C 0,0 km/h (0 Bft) 98 %
25.02.2016 23:30 -2,4 C -2,4 C -2,4 C 86 % 1015,7 hPa 0,0 l/m 0,0 km/h (0 Bft) N 0 0 min 0,000 mm 0 W/m -4,4 C -2,4 C 0,0 km/h (0 Bft) 97 %
25.02.2016 23:40 -2,4 C -2,4 C -2,4 C 86 % 1015,6 hPa 0,0 l/m 0,0 km/h (0 Bft) N 0 0 min 0,000 mm 0 W/m -4,4 C -2,4 C 0,0 km/h (0 Bft) 98 %
25.02.2016 23:50 -2,5 C -2,5 C -2,4 C 85 % 1015,7 hPa 0,0 l/m 0,0 km/h (0 Bft) N 0 0 min 0,000 mm 0 W/m -4,7 C -2,5 C 0,0 km/h (0 Bft) 97 %
_ Min-Zeit 23:10 23:10 23:10 15:40 04:00 - 00:00 - - - - - 23:50 23:00 00:00 17:40
Minimum _ -2,6 C -2,6 C -2,5 C 50 % 1010,7 hPa - 0,0 km/h (0 Bft) - - - - - -4,7 C -2,5 C 0,0 km/h (0 Bft) 86 %
_ Max-Zeit 14:50 11:40 14:50 06:10 22:20 05:10 16:20 - - 08:50 14:00 11:30 11:00 13:30 16:20 09:30
Maximum _ 6,6 C 6,3 C 6,6 C 92 % 1015,8 hPa 0,2 l/m 11,3 km/h
NW (2 Bft)
- - 10 min 0,178 mm 694 W/m 1,4 C 6,5 C 25,7 km/h
NW (4 Bft)
100 %
Durchschnitt _ 1,7 C 1,7 C 1,8 C 78 % 1012,7 hPa #0,8 l/m 1,5 km/h (1 Bft) NW - #6:00 h #1,016 mm 241 W/m -1,9 C 1,6 C 5,1 km/h (1 Bft) 98 %
PRIVATE WETTERSTATION BILLIGHEIM-ALLFELD - www.neckar-odenwald-wetter.de - Holger Sonntag